Ana Sayfa
METAR-TAF:

METAR-TAF

Havaalanları :

Çengdu Shuangliu Uluslararası Havalimanı

Çengdu, Çin

Enlem: 30-40N, Boylam: 104-01E, yükseklik: 508 m

Güncel hava durumu gözlemi

Rapor saat 15:00 UTC de 46 dakika önce yapıldı.
Rüzgar güney/güneybatıdan 4 kt
Sıcaklık 26°C
Nem 94%
Basınç 1002 hPa
Görüş mesafesi 10 km veya daha fazla
5000 ft yükseklikte az bulutlu

METAR: ZUUU 241500Z 21002MPS 9999 FEW050 26/25 Q1002 NOSIG

Saat: 23:46 (15:46 UTC)

Tahmin

Rapor saat 09:05 UTC de 6 saat ve 41 dakika önce yapıldı.
Ayın 24'si saat 12 UTC'den ayın 25'si saat 12 UTC'ye kadar geçerli Tahmin
Rüzgar kuzey/kuzeydoğudan 6 kt
Görüş mesafesi: 6000 m
4000 ft yükseklikte parçalı bulutlu
Geçici
ayın 24'si saat 12 UTC'den ayın 24'si saat 14 UTC'ye kadar
3000 ft yükseklikte az bulutlu, Kümülonimbus.
4000 ft yükseklikte parçalı bulutlu
hafif sağanak yağmurlar,

TAF: ZUUU 240905Z 2412/2512 02003MPS 6000 SCT040 TX31/2507Z TN24/2422Z TEMPO 2412/2414 -SHRA FEW030CB SCT040

4.000'den fazla havaalanı için hava durumu gözlemleri ve tahminleri (METAR ve TAF raporları).

Kullanılabilir istasyonlar harita üzerinde sarı ve kırmızı noktalarla gösterilir.

İstasyonun adını görmek için fareyi noktanın üzerinde gezdirin.

Sonrasında hava gözlem ve tahminlerini görmek için tıklayın.

Haritayı değiştirmek için: yaklaştırmak için siyah artı işaretli yeşil düğmeye ve uzaklaştırmak için de eksi işaretli düğmeye hızla tıklayın; bitişik haritalar için yeşil okları kullanın.


METAR-TAF: